Aérodrome :
LOGIN :

S'inscrire | Disclaimer

   EN    FR    IT 

 










Légende :    VFR   VFR Marginal   IFR   IFR Intensif   IFR Très Intensif
Visi : 
Plafond : 
>= 8 km
>= 3000ft
5 à 8 km
1000 à 3000 ft
1500m à 5 km
500 à 1000 ft
800 à 1500m
200 à 500 ft
< 800m
< 200 ft
Symboles :   Orages  Brouillard  Fortes neiges  Fortes précipitations  Vent > 20 kt
SIGMETs :   Divers  Orages  Givrage  Turbulence  Onde Orograph.  Cendres Volcan.






- Altitude de l'aérodrome : 597 ft
- Code IATA : PDV


LBPD - Plovdiv

DERNIER METAR :
  • 011030Z AUTO 35003KT 310V120 9999 NCD 05/M03 Q1023 NOSIG

METARs EXPIRÉS :
  • 011000Z AUTO VRB02KT 9999 NCD 04/M03 Q1023 NOSIG
  • 010930Z AUTO 00000KT 9999 NCD 04/M02 Q1024 NOSIG
  • 010900Z AUTO 32003KT 280V020 9999 NCD 02/M02 Q1024 NOSIG
  • 010830Z AUTO 32005KT 9999 FEW044 BKN061 01/M02 Q1024 NOSIG
  • 010800Z AUTO 27005KT 240V300 9999 SCT043 BKN061 01/M02 Q1024 NOSIG

TAF TAF LBPD
Valide du 01 à 06h jusqu'au 02 à 06h UTC


010500Z 0106/0206 VRB04KT 9999 SCT040 BKN060
BECMG 0109/0111 10010KT SCT070
BECMG 0118/0120 VRB04KT 6000 NSC
TEMPO 0123/0206 3000 BR SCT015



MET'MAP, la Météo Aéronautique d'un coup d'oeil ! - Copyright ORBIFLY Décembre 2007 - Disclaimer

ORBIFLY MET'MAP TEAM :

Programmation & Développement : Alexandra Zaïnal
Sur une idée originale de : Baudouin d'Aumeries
Assistance à la programmation : Marc-Olivier Méhu
Soutien technique & logistique : Manuel Goepfert

Contact : metmap@orbifly.com




SOURCES & CREDITS :

   NOAA